Time;durP1;ratioP1;P1;durP2;ratioP2;P2;SDS_P1;SDS_P2;PMS_P1;PMS_P2;Temp;Humidity;BMP_temperature;BMP_pressure;BME280_temperature;BME280_humidity;BME280_pressure;Samples;Min_cycle;Max_cycle;Signal;HPM_P1;HPM_P2
2021/03/01 00:01:11;;;;;;;12.30;5.63;;;12.00;47.90;;;;;;5074930;28;20020;-72
2021/03/01 00:03:37;;;;;;;11.18;5.43;;;12.00;47.90;;;;;;5075224;28;20484;-75
2021/03/01 00:06:03;;;;;;;11.23;5.45;;;11.90;47.90;;;;;;5075355;28;20021;-72
2021/03/01 00:08:29;;;;;;;12.05;5.30;;;11.80;48.40;;;;;;5075427;28;20416;-72
2021/03/01 00:10:54;;;;;;;14.43;6.53;;;11.70;49.10;;;;;;5075339;28;20440;-73
2021/03/01 00:13:21;;;;;;;11.88;5.88;;;11.60;49.00;;;;;;5075169;28;20056;-71
2021/03/01 00:15:48;;;;;;;10.90;6.18;;;11.60;48.90;;;;;;5075181;28;20032;-72
2021/03/01 00:18:14;;;;;;;12.75;6.22;;;11.50;49.10;;;;;;5074062;28;20060;-71
2021/03/01 00:20:39;;;;;;;11.50;5.93;;;11.60;49.50;;;;;;5075272;28;20677;-72
2021/03/01 00:23:05;;;;;;;12.63;5.93;;;11.50;49.40;;;;;;5075260;28;20024;-73
2021/03/01 00:25:33;;;;;;;14.02;6.45;;;11.50;49.90;;;;;;5075238;28;20020;-70
2021/03/01 00:27:59;;;;;;;15.20;6.53;;;11.50;49.80;;;;;;5075341;28;20032;-74
2021/03/01 00:30:24;;;;;;;15.93;6.50;;;11.50;49.80;;;;;;5074988;28;20009;-71
2021/03/01 00:32:50;;;;;;;14.75;6.78;;;11.50;50.00;;;;;;5075434;28;20038;-72
2021/03/01 00:35:16;;;;;;;22.88;7.50;;;11.50;50.00;;;;;;5073510;28;20035;-74
2021/03/01 00:37:41;;;;;;;13.75;7.00;;;11.50;50.20;;;;;;5075257;28;20020;-73
2021/03/01 00:40:08;;;;;;;15.02;7.13;;;11.50;50.30;;;;;;5074688;28;20359;-72
2021/03/01 00:42:34;;;;;;;14.57;7.18;;;11.70;50.40;;;;;;5075288;28;20450;-73
2021/03/01 00:44:59;;;;;;;19.95;8.70;;;11.80;50.30;;;;;;5074714;28;20020;-74
2021/03/01 00:47:25;;;;;;;18.02;8.38;;;11.80;50.60;;;;;;5074534;28;20036;-73
2021/03/01 00:49:51;;;;;;;21.50;9.95;;;11.80;50.30;;;;;;5073519;28;20056;-72
2021/03/01 00:52:17;;;;;;;18.63;10.90;;;11.90;50.50;;;;;;5073111;28;20116;-74
2021/03/01 00:54:42;;;;;;;20.95;10.15;;;11.90;50.50;;;;;;5074452;28;20021;-71
2021/03/01 00:57:08;;;;;;;17.90;10.07;;;11.80;50.70;;;;;;5074666;28;20020;-72
2021/03/01 00:59:34;;;;;;;19.15;10.48;;;11.80;51.20;;;;;;5074515;28;20065;-72
2021/03/01 01:02:00;;;;;;;20.75;10.93;;;11.90;51.30;;;;;;5074280;28;20028;-73
2021/03/01 01:04:25;;;;;;;20.20;11.25;;;11.80;51.40;;;;;;5074697;28;20066;-71
2021/03/01 01:06:51;;;;;;;20.05;11.10;;;11.80;51.60;;;;;;5074526;28;20020;-72
2021/03/01 01:09:17;;;;;;;18.02;11.35;;;11.80;51.80;;;;;;5074383;28;20021;-77
2021/03/01 01:11:44;;;;;;;19.75;11.18;;;11.70;51.90;;;;;;5073875;28;20052;-73
2021/03/01 01:14:10;;;;;;;19.67;11.88;;;11.50;52.20;;;;;;5073393;28;20119;-78
2021/03/01 01:16:36;;;;;;;20.65;11.73;;;11.40;52.70;;;;;;5072749;28;20446;-73
2021/03/01 01:19:03;;;;;;;21.17;11.35;;;11.30;52.80;;;;;;5074072;28;20095;-71
2021/03/01 01:21:28;;;;;;;20.65;10.77;;;11.30;53.20;;;;;;5073986;28;20063;-75
2021/03/01 01:23:54;;;;;;;18.50;11.02;;;11.40;53.50;;;;;;5074251;28;20056;-73
2021/03/01 01:26:19;;;;;;;25.02;10.05;;;11.40;53.60;;;;;;5074053;28;20032;-74
2021/03/01 01:28:45;;;;;;;17.88;8.95;;;11.40;53.10;;;;;;5073784;28;20025;-71
2021/03/01 01:31:11;;;;;;;14.48;8.05;;;11.50;52.90;;;;;;5073674;28;20024;-72
2021/03/01 01:33:37;;;;;;;17.02;8.48;;;11.50;52.60;;;;;;5073931;28;20036;-72
2021/03/01 01:36:03;;;;;;;12.85;7.43;;;11.70;52.30;;;;;;5073680;28;20384;-76
2021/03/01 01:38:28;;;;;;;14.63;7.45;;;11.60;52.00;;;;;;5073993;28;20024;-78
2021/03/01 01:40:54;;;;;;;13.80;6.72;;;11.50;51.50;;;;;;5073624;28;20021;-74
2021/03/01 01:43:20;;;;;;;14.07;6.72;;;11.50;51.20;;;;;;5073677;28;20044;-71
2021/03/01 01:45:46;;;;;;;12.55;5.75;;;11.40;51.80;;;;;;5073909;28;20029;-71
2021/03/01 01:48:11;;;;;;;16.42;6.30;;;11.30;51.70;;;;;;5073769;28;20024;-71
2021/03/01 01:50:38;;;;;;;12.40;6.38;;;11.30;52.10;;;;;;5073532;28;20521;-69
2021/03/01 01:53:03;;;;;;;16.50;6.20;;;11.10;51.70;;;;;;5073488;28;20032;-70
2021/03/01 01:55:30;;;;;;;14.90;6.50;;;11.00;51.70;;;;;;5073147;28;20210;-70
2021/03/01 01:57:56;;;;;;;13.98;5.53;;;11.00;52.30;;;;;;5073306;28;20025;-71
2021/03/01 02:03:43;;;;;;;10.73;5.72;;;11.20;52.00;;;;;;5073504;28;20488;-71
2021/03/01 02:06:36;;;;;;;11.77;5.28;;;11.10;51.80;;;;;;5073134;28;20415;-70
2021/03/01 02:09:38;;;;;;;15.07;6.10;;;11.20;51.90;;;;;;5068861;28;20037;-71
2021/03/01 02:12:15;;;;;;;13.23;5.15;;;11.30;51.60;;;;;;5031018;28;20052;-70
2021/03/01 02:15:09;;;;;;;11.65;5.32;;;11.30;51.60;;;;;;5067850;28;20074;-70
2021/03/01 02:17:35;;;;;;;11.60;5.50;;;11.30;51.30;;;;;;5073321;28;20432;-70
2021/03/01 02:20:01;;;;;;;13.05;5.40;;;11.20;51.10;;;;;;5072862;28;20086;-71
2021/03/01 02:22:27;;;;;;;13.50;5.80;;;11.20;51.20;;;;;;5073082;28;20029;-70
2021/03/01 02:25:04;;;;;;;14.13;5.30;;;11.20;51.20;;;;;;5072392;28;20028;-71
2021/03/01 02:27:34;;;;;;;14.23;5.97;;;11.20;51.30;;;;;;5072800;28;20028;-70
2021/03/01 02:30:46;;;;;;;11.95;5.78;;;11.10;51.30;;;;;;5073065;28;20090;-71
2021/03/01 02:33:22;;;;;;;12.30;5.63;;;11.20;51.70;;;;;;5069840;28;20040;-72
2021/03/01 02:36:05;;;;;;;10.63;5.57;;;11.00;51.40;;;;;;5073350;28;20082;-73
2021/03/01 02:38:34;;;;;;;13.68;5.93;;;10.80;51.90;;;;;;5073201;28;20469;-71
2021/03/01 02:41:01;;;;;;;13.52;6.18;;;10.90;52.00;;;;;;5073033;28;20079;-71
2021/03/01 02:43:30;;;;;;;11.38;5.90;;;10.90;51.90;;;;;;5072903;28;20049;-72
2021/03/01 02:45:58;;;;;;;14.50;5.57;;;10.80;51.60;;;;;;5072866;28;20025;-73
2021/03/01 02:48:25;;;;;;;13.70;5.35;;;10.80;52.10;;;;;;5073095;28;20048;-71
2021/03/01 02:50:52;;;;;;;11.38;5.78;;;10.80;52.20;;;;;;5073260;28;20078;-74
2021/03/01 02:53:19;;;;;;;14.45;6.20;;;10.80;51.80;;;;;;5072987;28;20377;-74
2021/03/01 02:55:48;;;;;;;14.15;5.47;;;10.70;51.90;;;;;;5073012;28;20529;-75
2021/03/01 02:58:17;;;;;;;11.90;5.78;;;10.60;52.00;;;;;;5072953;28;20025;-72
2021/03/01 03:00:44;;;;;;;14.55;6.00;;;10.50;52.00;;;;;;5072966;28;20020;-75
2021/03/01 03:03:12;;;;;;;14.82;5.43;;;10.50;52.60;;;;;;5073023;28;20050;-74
2021/03/01 03:05:41;;;;;;;11.52;5.50;;;10.50;53.10;;;;;;5072502;28;20070;-72
2021/03/01 03:08:08;;;;;;;14.07;5.47;;;10.50;52.50;;;;;;5071812;28;20123;-72
2021/03/01 03:10:35;;;;;;;14.48;6.57;;;10.60;52.40;;;;;;5071804;28;20424;-74
2021/03/01 03:13:04;;;;;;;12.82;5.70;;;10.70;52.60;;;;;;5071818;28;20067;-72
2021/03/01 03:15:32;;;;;;;16.48;5.90;;;10.80;52.30;;;;;;5072655;28;20032;-70
2021/03/01 03:18:00;;;;;;;10.80;6.07;;;10.90;52.00;;;;;;5072732;28;20354;-78
2021/03/01 03:20:26;;;;;;;12.80;5.07;;;10.90;51.70;;;;;;5072842;28;20063;-73
2021/03/01 03:22:52;;;;;;;12.40;5.60;;;11.00;52.10;;;;;;5072549;28;20071;-74
2021/03/01 03:25:17;;;;;;;13.43;5.82;;;11.00;51.90;;;;;;5072587;28;20017;-74
2021/03/01 03:27:43;;;;;;;14.65;5.80;;;10.70;51.90;;;;;;5073372;28;20029;-71
2021/03/01 03:30:12;;;;;;;14.20;6.05;;;10.80;52.60;;;;;;5073209;28;20054;-75
2021/03/01 03:32:38;;;;;;;11.30;5.78;;;10.60;52.40;;;;;;5073009;28;20033;-71
2021/03/01 03:35:07;;;;;;;12.48;5.38;;;10.60;52.50;;;;;;5072605;28;20024;-71
2021/03/01 03:37:37;;;;;;;10.90;5.53;;;10.70;52.40;;;;;;5074925;28;20056;-72
2021/03/01 03:40:05;;;;;;;12.05;5.70;;;10.70;52.20;;;;;;5076392;28;20481;-73
2021/03/01 03:42:32;;;;;;;9.93;5.50;;;10.70;52.30;;;;;;5076487;28;20405;-72
2021/03/01 03:44:59;;;;;;;12.02;6.05;;;10.80;52.30;;;;;;5076471;28;20037;-74
2021/03/01 03:47:26;;;;;;;11.48;5.78;;;10.70;52.20;;;;;;5076514;28;20031;-77
2021/03/01 03:49:55;;;;;;;11.50;5.75;;;10.60;52.50;;;;;;5076241;28;20024;-75
2021/03/01 03:52:25;;;;;;;11.30;5.75;;;10.60;52.50;;;;;;5075635;28;20028;-72
2021/03/01 03:54:52;;;;;;;14.43;5.88;;;10.40;52.60;;;;;;5075756;28;20028;-73
2021/03/01 03:57:23;;;;;;;13.68;5.57;;;10.50;52.80;;;;;;5075856;28;20020;-73
2021/03/01 03:59:53;;;;;;;12.88;5.95;;;10.50;52.60;;;;;;5076165;28;20545;-73
2021/03/01 04:02:21;;;;;;;11.13;5.55;;;10.40;52.60;;;;;;5075718;28;20024;-71
2021/03/01 04:04:48;;;;;;;12.25;5.85;;;10.30;52.50;;;;;;5075385;28;20036;-72
2021/03/01 04:07:15;;;;;;;12.52;5.00;;;10.20;52.80;;;;;;5075513;28;20028;-73
2021/03/01 04:09:43;;;;;;;13.40;5.50;;;10.00;52.70;;;;;;5075599;28;20108;-71
2021/03/01 04:12:11;;;;;;;13.27;5.60;;;10.00;52.80;;;;;;5075374;28;20048;-78
2021/03/01 04:14:39;;;;;;;13.60;5.88;;;10.10;53.10;;;;;;5075212;28;20035;-71
2021/03/01 04:17:11;;;;;;;13.23;5.68;;;10.20;53.00;;;;;;5075489;28;20138;-71
2021/03/01 04:19:38;;;;;;;13.73;5.78;;;10.00;52.70;;;;;;5075553;28;20020;-71
2021/03/01 04:22:07;;;;;;;11.75;5.85;;;10.00;52.90;;;;;;5075682;28;20107;-73
2021/03/01 04:24:35;;;;;;;11.10;5.50;;;10.00;52.80;;;;;;5057746;28;20116;-73
2021/03/01 04:27:03;;;;;;;11.57;5.68;;;10.00;52.70;;;;;;5074313;28;20033;-72
2021/03/01 04:29:30;;;;;;;12.23;5.75;;;9.90;53.80;;;;;;5074285;28;20024;-74
2021/03/01 04:31:58;;;;;;;11.95;5.43;;;9.80;53.70;;;;;;5075252;28;20025;-73
2021/03/01 04:34:25;;;;;;;12.05;5.50;;;9.90;53.90;;;;;;5075537;28;20465;-75
2021/03/01 04:36:51;;;;;;;16.20;5.50;;;10.00;52.90;;;;;;5074900;28;20391;-70
2021/03/01 04:39:18;;;;;;;9.98;4.88;;;9.80;53.70;;;;;;5075033;28;20036;-71
2021/03/01 04:41:45;;;;;;;16.77;6.05;;;9.80;53.90;;;;;;5074625;28;20423;-71
2021/03/01 04:44:15;;;;;;;13.55;5.78;;;9.90;54.10;;;;;;5074578;28;20027;-70
2021/03/01 04:46:51;;;;;;;13.40;5.82;;;9.90;53.90;;;;;;5074498;28;20058;-71
2021/03/01 04:49:17;;;;;;;12.93;5.47;;;9.80;53.80;;;;;;5074817;28;20020;-70
2021/03/01 04:51:44;;;;;;;11.45;6.20;;;9.70;54.50;;;;;;5074901;28;20089;-71
2021/03/01 04:54:11;;;;;;;13.65;5.78;;;9.70;54.00;;;;;;5074482;28;20048;-72
2021/03/01 04:56:44;;;;;;;14.60;5.75;;;9.80;53.80;;;;;;5074577;28;20052;-74
2021/03/01 04:59:13;;;;;;;13.13;5.38;;;9.70;53.90;;;;;;5074559;28;20081;-73
2021/03/01 05:01:43;;;;;;;13.07;5.95;;;9.70;54.10;;;;;;5074780;28;20070;-72
2021/03/01 05:04:10;;;;;;;12.48;5.85;;;9.70;54.10;;;;;;5074539;28;20032;-71
2021/03/01 05:06:36;;;;;;;13.20;5.32;;;9.70;54.00;;;;;;5074199;28;20029;-72
2021/03/01 05:09:03;;;;;;;10.05;5.28;;;9.60;53.90;;;;;;5074036;28;20070;-70
2021/03/01 05:11:37;;;;;;;11.65;5.05;;;9.60;53.70;;;;;;5074163;28;20025;-70
2021/03/01 05:14:05;;;;;;;11.30;5.50;;;9.50;53.90;;;;;;5074053;28;20036;-71
2021/03/01 05:16:31;;;;;;;10.93;5.88;;;9.50;54.30;;;;;;5074234;28;20070;-71
2021/03/01 05:18:58;;;;;;;13.63;5.45;;;9.50;54.20;;;;;;5074386;28;20037;-73
2021/03/01 05:21:25;;;;;;;10.48;4.53;;;9.40;54.20;;;;;;5073950;28;20024;-73
2021/03/01 05:23:51;;;;;;;10.52;5.63;;;9.30;54.30;;;;;;5074050;28;20040;-69
2021/03/01 05:26:18;;;;;;;12.70;5.97;;;9.30;54.50;;;;;;5074353;28;20025;-71
2021/03/01 05:28:44;;;;;;;10.13;5.68;;;9.30;54.40;;;;;;5073894;28;20036;-70
2021/03/01 05:31:10;;;;;;;12.30;5.72;;;9.30;54.50;;;;;;5073968;28;20021;-71
2021/03/01 05:33:36;;;;;;;9.68;5.38;;;9.30;54.30;;;;;;5073846;28;20044;-71
2021/03/01 05:36:03;;;;;;;12.88;5.30;;;9.20;54.40;;;;;;5073619;28;20073;-73
2021/03/01 05:38:29;;;;;;;10.65;5.40;;;9.10;54.30;;;;;;5073536;28;20107;-70
2021/03/01 05:40:56;;;;;;;11.77;5.22;;;9.10;55.00;;;;;;5073764;28;20485;-72
2021/03/01 05:43:25;;;;;;;12.70;5.45;;;9.10;54.60;;;;;;5073789;28;20028;-71
2021/03/01 05:45:51;;;;;;;11.05;5.72;;;9.10;54.50;;;;;;5073448;28;20420;-69
2021/03/01 05:48:18;;;;;;;10.65;5.35;;;9.20;54.60;;;;;;5073761;28;20024;-71
2021/03/01 05:50:45;;;;;;;12.23;5.32;;;9.30;54.50;;;;;;5073554;28;20377;-70
2021/03/01 05:53:19;;;;;;;10.82;5.30;;;9.40;54.20;;;;;;5073176;28;20032;-71
2021/03/01 05:55:46;;;;;;;11.75;5.30;;;9.40;54.10;;;;;;5073335;28;20416;-70
2021/03/01 05:58:13;;;;;;;15.27;5.30;;;9.40;54.20;;;;;;5073416;28;20369;-71
2021/03/01 06:00:40;;;;;;;12.60;6.22;;;9.40;54.20;;;;;;5072889;28;20029;-73
2021/03/01 06:03:06;;;;;;;12.35;5.20;;;9.60;54.10;;;;;;5073389;28;20025;-70
2021/03/01 06:05:32;;;;;;;11.45;5.35;;;9.70;53.90;;;;;;5073119;28;20016;-70
2021/03/01 06:07:58;;;;;;;11.55;5.60;;;9.60;53.60;;;;;;5071806;28;20477;-72
2021/03/01 06:10:24;;;;;;;11.95;5.30;;;9.70;53.70;;;;;;5073069;28;20048;-71
2021/03/01 06:12:50;;;;;;;15.45;5.72;;;9.70;53.70;;;;;;5073079;28;20074;-73
2021/03/01 06:15:19;;;;;;;10.38;5.80;;;9.70;54.30;;;;;;5073437;28;20366;-73
2021/03/01 06:18:05;;;;;;;14.20;6.72;;;9.80;53.80;;;;;;5075344;28;20021;-72
2021/03/01 06:20:31;;;;;;;15.65;5.88;;;9.90;53.50;;;;;;5074774;28;20119;-73
2021/03/01 06:22:57;;;;;;;15.38;6.43;;;9.90;53.30;;;;;;5073374;28;20078;-70
2021/03/01 06:25:23;;;;;;;14.93;7.05;;;10.00;52.30;;;;;;5073110;28;20020;-72
2021/03/01 06:27:53;;;;;;;10.77;6.65;;;10.00;52.30;;;;;;5073111;28;20024;-71
2021/03/01 06:30:30;;;;;;;11.98;6.10;;;9.80;52.80;;;;;;5071638;28;20486;-72
2021/03/01 06:33:07;;;;;;;11.18;5.93;;;9.80;53.60;;;;;;5073303;28;20079;-71
2021/03/01 06:35:57;;;;;;;14.57;5.70;;;9.80;53.30;;;;;;5073097;28;20077;-73
2021/03/01 06:38:27;;;;;;;11.55;6.40;;;9.70;53.00;;;;;;5073120;28;20025;-72
2021/03/01 06:41:16;;;;;;;12.93;5.28;;;9.70;53.50;;;;;;5072847;28;20100;-71
2021/03/01 06:43:56;;;;;;;11.27;5.72;;;9.80;53.20;;;;;;5073006;28;20032;-73
2021/03/01 06:46:23;;;;;;;11.93;5.88;;;9.90;53.10;;;;;;5072773;28;20032;-71
2021/03/01 06:48:49;;;;;;;14.80;6.10;;;9.90;52.80;;;;;;5072685;28;20408;-70
2021/03/01 06:51:16;;;;;;;14.23;6.15;;;10.00;52.20;;;;;;5072677;28;20074;-71
2021/03/01 06:53:41;;;;;;;12.98;6.03;;;10.00;51.50;;;;;;5072524;28;20389;-70
2021/03/01 06:56:09;;;;;;;14.50;5.60;;;10.10;51.80;;;;;;5072467;28;20021;-74
2021/03/01 06:58:41;;;;;;;13.20;5.95;;;10.20;51.40;;;;;;5072561;28;20035;-73
2021/03/01 07:01:11;;;;;;;19.58;5.97;;;10.30;51.40;;;;;;5072540;28;20101;-74
2021/03/01 07:03:38;;;;;;;18.25;6.05;;;10.30;51.20;;;;;;5072289;28;20033;-71
2021/03/01 07:06:05;;;;;;;16.58;5.78;;;10.40;51.00;;;;;;5072307;28;20162;-73
2021/03/01 07:08:36;;;;;;;11.93;5.40;;;10.50;51.00;;;;;;5070874;28;20029;-71
2021/03/01 07:11:22;;;;;;;18.30;6.47;;;10.40;50.60;;;;;;5072527;28;20032;-73
2021/03/01 07:13:49;;;;;;;13.50;5.63;;;10.50;50.80;;;;;;5068960;28;20055;-71
2021/03/01 07:16:15;;;;;;;12.38;5.68;;;10.50;50.40;;;;;;5076160;28;20111;-71
2021/03/01 07:18:42;;;;;;;9.82;5.65;;;10.70;50.30;;;;;;5075922;28;20021;-74
2021/03/01 07:21:13;;;;;;;10.35;6.15;;;10.80;50.20;;;;;;5057825;28;20238;-72
2021/03/01 07:23:46;;;;;;;14.52;6.38;;;10.80;50.00;;;;;;5076114;28;20052;-72
2021/03/01 07:26:15;;;;;;;16.02;6.13;;;10.90;50.00;;;;;;5076065;28;20492;-72
2021/03/01 07:28:45;;;;;;;14.35;7.03;;;10.80;49.90;;;;;;5075981;28;20037;-72
2021/03/01 07:31:14;;;;;;;15.85;6.55;;;10.80;50.70;;;;;;5075837;28;20028;-73
2021/03/01 07:33:41;;;;;;;19.05;6.82;;;10.80;50.00;;;;;;5075622;28;20106;-70
2021/03/01 07:36:07;;;;;;;12.13;6.07;;;10.80;50.50;;;;;;5074206;28;20480;-71
2021/03/01 07:38:34;;;;;;;16.42;6.55;;;10.90;50.30;;;;;;5075984;28;20089;-71
2021/03/01 07:41:03;;;;;;;14.73;5.43;;;11.00;50.10;;;;;;5075515;28;20051;-72
2021/03/01 07:43:33;;;;;;;12.40;6.07;;;11.00;49.50;;;;;;5075672;28;20078;-73
2021/03/01 07:45:59;;;;;;;9.60;6.03;;;11.10;49.50;;;;;;5076199;28;20104;-74
2021/03/01 07:48:37;;;;;;;12.75;5.82;;;11.20;49.00;;;;;;5075622;28;20027;-70
2021/03/01 07:51:03;;;;;;;12.32;6.90;;;11.20;49.40;;;;;;5075697;28;20059;-72
2021/03/01 07:53:53;;;;;;;12.93;6.53;;;11.20;49.10;;;;;;5075279;28;20046;-74
2021/03/01 07:56:24;;;;;;;15.43;6.82;;;11.40;48.80;;;;;;5069778;28;20044;-71
2021/03/01 07:59:10;;;;;;;12.63;7.00;;;11.40;49.00;;;;;;5075257;28;20548;-75
2021/03/01 08:01:37;;;;;;;15.65;6.63;;;11.40;48.70;;;;;;5075637;28;20020;-71
2021/03/01 08:04:04;;;;;;;14.32;6.53;;;11.40;48.50;;;;;;5075671;28;20101;-76
2021/03/01 08:06:58;;;;;;;13.93;6.70;;;11.50;48.70;;;;;;5075468;28;20119;-74
2021/03/01 08:09:47;;;;;;;13.32;6.97;;;11.60;49.10;;;;;;5075356;28;20032;-78
2021/03/01 08:12:31;;;;;;;12.45;6.22;;;11.60;49.20;;;;;;5075320;28;20416;-77
2021/03/01 08:14:59;;;;;;;18.38;6.70;;;11.80;48.60;;;;;;5075183;28;20039;-73
2021/03/01 08:17:24;;;;;;;13.25;6.53;;;11.80;47.90;;;;;;5075004;28;20032;-74
2021/03/01 08:19:51;;;;;;;12.52;6.85;;;11.80;48.30;;;;;;5075237;28;20044;-73
2021/03/01 08:22:17;;;;;;;13.73;6.25;;;11.80;48.10;;;;;;5074536;28;20024;-74
2021/03/01 08:24:50;;;;;;;21.98;7.30;;;11.80;48.20;;;;;;5075008;28;20029;-73
2021/03/01 08:27:25;;;;;;;14.95;6.15;;;11.90;48.70;;;;;;5074977;28;20108;-74
2021/03/01 08:30:20;;;;;;;12.13;7.00;;;11.80;48.10;;;;;;5075009;28;20032;-73
2021/03/01 08:33:10;;;;;;;17.73;6.72;;;11.80;48.90;;;;;;5074652;28;20048;-78
2021/03/01 08:35:37;;;;;;;15.60;7.10;;;11.90;49.00;;;;;;5073115;28;20033;-76
2021/03/01 08:38:03;;;;;;;14.80;6.55;;;12.00;47.90;;;;;;5074764;28;20358;-73
2021/03/01 08:40:30;;;;;;;13.85;6.70;;;12.00;47.90;;;;;;5073277;28;20032;-73
2021/03/01 08:43:02;;;;;;;16.95;8.25;;;12.10;47.80;;;;;;5074695;28;20020;-74
2021/03/01 08:45:28;;;;;;;16.45;7.68;;;12.30;47.80;;;;;;5074588;28;20102;-71
2021/03/01 08:47:55;;;;;;;21.58;7.18;;;12.30;47.80;;;;;;5074330;28;20408;-75
2021/03/01 08:50:30;;;;;;;17.85;7.60;;;12.50;47.60;;;;;;5074239;28;20085;-74
2021/03/01 08:52:56;;;;;;;16.15;7.22;;;12.70;48.30;;;;;;5074475;28;20025;-73
2021/03/01 08:55:23;;;;;;;17.33;7.35;;;12.70;47.90;;;;;;5074279;28;20034;-73
2021/03/01 08:58:03;;;;;;;21.23;7.90;;;12.80;47.40;;;;;;5074315;28;20027;-72
2021/03/01 09:00:31;;;;;;;13.77;7.75;;;12.80;47.80;;;;;;5072840;28;20060;-72
2021/03/01 09:03:17;;;;;;;28.00;8.32;;;12.80;47.70;;;;;;5074123;28;20036;-71
2021/03/01 09:05:47;;;;;;;15.23;7.68;;;12.90;47.70;;;;;;5073975;28;20035;-74
2021/03/01 09:08:14;;;;;;;14.88;7.80;;;13.00;48.50;;;;;;5072927;28;20390;-72
2021/03/01 09:10:44;;;;;;;18.02;8.05;;;13.00;47.70;;;;;;5073972;28;20104;-71
2021/03/01 09:13:17;;;;;;;15.48;7.93;;;12.90;47.60;;;;;;5073504;28;20075;-71
2021/03/01 09:15:43;;;;;;;17.00;8.85;;;13.10;48.60;;;;;;5074055;28;20029;-71
2021/03/01 09:18:09;;;;;;;17.98;8.55;;;13.10;47.60;;;;;;5073682;28;20032;-71
2021/03/01 09:20:40;;;;;;;18.70;8.02;;;13.10;47.90;;;;;;5073651;28;20020;-73
2021/03/01 09:23:06;;;;;;;20.15;8.48;;;13.10;47.60;;;;;;5073479;28;20035;-74
2021/03/01 09:25:34;;;;;;;16.95;8.07;;;13.10;47.60;;;;;;5073714;28;20386;-75
2021/03/01 09:28:00;;;;;;;19.38;8.25;;;13.20;47.60;;;;;;5072348;28;20374;-72
2021/03/01 09:30:27;;;;;;;14.48;7.70;;;13.20;47.70;;;;;;5073706;28;20021;-74
2021/03/01 09:33:00;;;;;;;22.30;8.50;;;13.20;47.50;;;;;;5073791;28;20033;-75
2021/03/01 09:35:33;;;;;;;19.90;8.60;;;13.30;48.40;;;;;;5073013;28;20028;-73
2021/03/01 09:38:03;;;;;;;14.15;8.20;;;13.40;48.10;;;;;;5073526;28;20036;-73
2021/03/01 09:40:30;;;;;;;16.45;8.10;;;13.50;47.70;;;;;;5071783;28;20070;-72
2021/03/01 09:43:03;;;;;;;23.77;8.32;;;13.50;47.40;;;;;;5073396;28;20486;-73
2021/03/01 09:45:35;;;;;;;18.75;8.93;;;13.60;47.50;;;;;;5073250;28;20025;-73
2021/03/01 09:48:03;;;;;;;21.15;8.32;;;13.70;48.30;;;;;;5073547;28;20187;-74
2021/03/01 09:50:30;;;;;;;18.55;8.85;;;13.70;47.60;;;;;;5073595;28;20078;-74
2021/03/01 09:52:57;;;;;;;19.35;9.85;;;13.80;47.80;;;;;;5073353;28;20036;-73
2021/03/01 09:55:24;;;;;;;19.55;9.18;;;13.90;47.90;;;;;;5072956;28;20029;-72
2021/03/01 09:57:50;;;;;;;19.65;9.60;;;13.90;47.70;;;;;;5073028;28;20428;-73
2021/03/01 10:00:20;;;;;;;21.73;9.65;;;14.00;47.70;;;;;;5071566;28;20082;-73
2021/03/01 10:03:03;;;;;;;23.17;10.45;;;14.10;47.90;;;;;;5072006;28;20028;-75
2021/03/01 10:05:32;;;;;;;14.17;7.13;;;14.10;47.70;;;;;;5072995;28;20024;-75
2021/03/01 10:08:06;;;;;;;20.48;9.95;;;14.20;48.00;;;;;;5073030;28;20091;-73
2021/03/01 10:10:40;;;;;;;21.80;10.18;;;14.30;48.10;;;;;;5073106;28;20099;-72
2021/03/01 10:13:08;;;;;;;18.75;9.88;;;14.40;48.10;;;;;;5073234;28;20051;-73
2021/03/01 10:15:47;;;;;;;24.98;9.88;;;14.40;48.30;;;;;;5073063;28;20040;-72
2021/03/01 10:18:14;;;;;;;19.40;9.98;;;14.50;48.30;;;;;;5073186;28;20355;-72
2021/03/01 10:20:51;;;;;;;17.80;9.38;;;14.50;48.20;;;;;;5072882;28;20028;-71
2021/03/01 10:23:31;;;;;;;20.88;10.00;;;14.60;48.60;;;;;;5072892;28;20090;-77
2021/03/01 10:26:14;;;;;;;17.15;9.20;;;14.70;48.40;;;;;;5072805;28;20082;-75
2021/03/01 10:28:40;;;;;;;19.60;9.52;;;14.80;48.50;;;;;;5071473;28;20432;-73
2021/03/01 10:31:10;;;;;;;21.10;10.55;;;14.90;48.70;;;;;;5072950;28;20020;-74
2021/03/01 10:33:49;;;;;;;25.05;10.07;;;15.00;48.90;;;;;;5072863;28;20094;-76
2021/03/01 10:36:14;;;;;;;25.30;9.68;;;15.00;49.00;;;;;;5072951;28;20417;-75
2021/03/01 10:39:02;;;;;;;24.80;10.55;;;15.20;49.40;;;;;;5072841;28;20032;-74
2021/03/01 10:41:30;;;;;;;23.55;9.88;;;15.20;49.30;;;;;;5073137;28;20082;-75
2021/03/01 10:44:05;;;;;;;25.08;9.35;;;15.20;49.80;;;;;;5072951;28;20036;-72
2021/03/01 10:46:45;;;;;;;22.42;10.27;;;15.30;50.30;;;;;;5075543;28;20032;-74
2021/03/01 10:49:20;;;;;;;26.27;9.15;;;15.30;51.00;;;;;;5081144;28;20024;-74
2021/03/01 10:51:50;;;;;;;22.38;9.02;;;15.30;51.40;;;;;;5077349;28;20381;-78
2021/03/01 10:54:16;;;;;;;20.73;9.07;;;15.40;51.70;;;;;;5077003;28;20434;-78
2021/03/01 10:56:42;;;;;;;18.35;8.90;;;15.40;52.00;;;;;;5076825;28;20036;-77
2021/03/01 10:59:09;;;;;;;15.57;8.57;;;15.40;51.70;;;;;;5076600;28;20025;-71
2021/03/01 11:01:39;;;;;;;20.67;8.93;;;15.50;51.80;;;;;;5076751;28;20016;-76
2021/03/01 11:04:06;;;;;;;20.35;8.93;;;15.60;51.90;;;;;;5076944;28;20385;-81
2021/03/01 11:06:32;;;;;;;15.40;8.38;;;15.60;51.80;;;;;;5076643;28;20020;-79
2021/03/01 11:09:00;;;;;;;21.42;8.68;;;15.80;51.80;;;;;;5076540;28;20587;-76
2021/03/01 11:11:26;;;;;;;25.90;8.32;;;15.90;51.80;;;;;;5076439;28;20017;-78
2021/03/01 11:13:51;;;;;;;20.98;8.80;;;16.00;51.80;;;;;;5074643;28;20043;-78
2021/03/01 11:16:17;;;;;;;19.67;8.45;;;16.20;51.70;;;;;;5074842;28;20028;-76
2021/03/01 11:18:43;;;;;;;18.35;8.77;;;16.30;51.60;;;;;;5074836;28;20052;-74
2021/03/01 11:21:10;;;;;;;26.45;9.38;;;16.40;52.20;;;;;;5076086;28;20051;-79
2021/03/01 11:23:35;;;;;;;14.38;7.63;;;16.50;51.30;;;;;;5076092;28;20478;-74
2021/03/01 11:26:01;;;;;;;19.40;8.48;;;16.60;51.40;;;;;;5075694;28;20035;-73
2021/03/01 11:28:27;;;;;;;15.43;7.72;;;16.70;51.30;;;;;;5076048;28;20028;-73
2021/03/01 11:30:54;;;;;;;25.35;8.30;;;16.70;51.00;;;;;;5076195;28;20119;-73
2021/03/01 11:33:20;;;;;;;15.48;6.78;;;16.70;51.00;;;;;;5076013;28;20036;-74
2021/03/01 11:35:46;;;;;;;12.75;5.97;;;16.80;51.00;;;;;;5075734;28;20016;-71
2021/03/01 11:38:12;;;;;;;17.77;6.63;;;16.80;49.90;;;;;;5075876;28;20035;-74
2021/03/01 11:40:38;;;;;;;14.00;6.75;;;16.80;49.60;;;;;;5075671;28;20099;-71
2021/03/01 11:43:04;;;;;;;24.55;6.85;;;16.80;49.60;;;;;;5075750;28;20044;-74
2021/03/01 11:45:30;;;;;;;20.63;7.30;;;16.80;48.90;;;;;;5075617;28;20107;-73
2021/03/01 11:47:56;;;;;;;17.83;7.60;;;16.90;48.70;;;;;;5075441;28;20032;-72
2021/03/01 11:50:22;;;;;;;18.23;7.20;;;17.00;48.70;;;;;;5075485;28;20021;-74
2021/03/01 11:52:47;;;;;;;20.65;6.90;;;17.00;48.40;;;;;;5075368;28;20024;-73
2021/03/01 11:55:13;;;;;;;15.88;7.43;;;17.00;48.50;;;;;;5075465;28;20362;-73
2021/03/01 11:57:39;;;;;;;15.27;6.18;;;17.10;48.70;;;;;;5074465;28;20170;-71
2021/03/01 12:00:09;;;;;;;14.98;6.57;;;17.20;48.50;;;;;;5075512;28;20062;-73
2021/03/01 12:02:35;;;;;;;18.65;7.60;;;17.20;48.40;;;;;;5075327;28;20020;-76
2021/03/01 12:05:01;;;;;;;19.50;6.63;;;17.30;48.50;;;;;;5074056;28;20124;-72
2021/03/01 12:07:26;;;;;;;15.07;6.95;;;17.40;48.20;;;;;;5075042;28;20468;-74
2021/03/01 12:09:53;;;;;;;16.52;7.53;;;17.50;48.10;;;;;;5075203;28;20039;-74
2021/03/01 12:12:18;;;;;;;20.58;7.75;;;17.50;48.60;;;;;;5074899;28;20048;-73
2021/03/01 12:14:44;;;;;;;16.00;7.20;;;17.60;47.90;;;;;;5074856;28;20037;-73
2021/03/01 12:17:10;;;;;;;18.55;7.78;;;17.70;47.70;;;;;;5075098;28;20020;-73
2021/03/01 12:19:38;;;;;;;25.40;8.43;;;17.80;47.80;;;;;;5075010;28;20028;-71
2021/03/01 12:22:04;;;;;;;18.55;8.00;;;17.80;47.50;;;;;;5074863;28;20032;-72
2021/03/01 12:24:30;;;;;;;14.25;7.88;;;17.80;47.30;;;;;;5074810;28;20500;-71
2021/03/01 12:26:56;;;;;;;20.33;8.70;;;17.80;47.30;;;;;;5074807;28;20028;-72
2021/03/01 12:29:22;;;;;;;25.40;8.20;;;17.90;47.50;;;;;;5074751;28;20460;-75
2021/03/01 12:31:47;;;;;;;17.52;8.00;;;18.00;47.20;;;;;;5074745;28;20464;-73
2021/03/01 12:34:13;;;;;;;24.08;8.00;;;18.00;47.10;;;;;;5074817;28;20036;-73
2021/03/01 12:36:39;;;;;;;19.77;7.78;;;18.10;47.30;;;;;;5074862;28;20492;-73
2021/03/01 12:39:05;;;;;;;23.88;7.40;;;18.20;46.70;;;;;;5074632;28;20335;-72
2021/03/01 12:41:31;;;;;;;20.63;8.35;;;18.20;46.90;;;;;;5074629;28;20059;-70
2021/03/01 12:43:57;;;;;;;21.13;8.07;;;18.30;47.10;;;;;;5074238;28;20060;-72
2021/03/01 12:46:22;;;;;;;22.05;8.02;;;18.30;46.50;;;;;;5074345;28;20130;-73
2021/03/01 12:48:49;;;;;;;20.20;7.55;;;18.30;46.20;;;;;;5074436;28;20043;-74
2021/03/01 12:51:15;;;;;;;15.27;6.75;;;18.40;46.30;;;;;;5075731;28;20050;-71